Terminal Aerodrome Forecast
Issued by NWS Lake Charles, LA

Home | Current Version | Previous Version | Text Only | Print | Product List | Glossary On
Versions: 1 2 3 4 5 6 7 8 9 10 11 12 13 14 15 16 17 18 19 20
000
FTUS44 KLCH 252320
TAFAEX
TAF
KAEX 252320Z 2600/2624 14010KT P6SM VCTS SCT020CB BKN150
     FM260200 16010KT P6SM VCTS SCT020CB BKN150
     FM260500 14010G35KT 1SM +TSRA BKN015CB
     FM260800 16006KT P6SM VCTS SCT020CB BKN150
     FM261200 16010KT P6SM BKN025
     FM261800 18012KT P6SM VCTS BKN040CB=

USA.gov is the U.S. government's official web portal to all federal, state and local government web resources and services.